Latest Weather Observations for Gold Coast Seaway

IDQ60801

Issued at 5:32 am EST Wednesday 1 July 2015 (issued every 30 minutes, with the page automatically refreshed every 10 minutes)

About weather observations | Map of weather stations | Latest weather observations for QLD | Other Formats
Station Details ID: 040764 Name: GOLD COAST SEAWAY Lat: -27.94 Lon: 153.43 Height: 2.98 m
Data from the previous 72 hours. | See also: Recent months at Gold Coast Seaway
Date/Time
EST
Temp
°C
App
Temp
°C
Dew
Point
Rel
Hum
%
Delta-T
°C
Wind Press
QNH
hPa
Press
MSL
hPa
Rain
since 9 am
mm
Dir
 
Spd
km/h
Gust
km/h
Spd
kts
Gust
kts
01/05:30am 14.3 13.6 14.3 100 0.0 WSW 11 13 6 7 1022.8 1022.8 0.0
01/05:00am 14.1 12.9 14.1 100 0.0 SW 13 15 7 8 1022.6 1022.6 0.0
01/04:30am 14.2 13.1 14.2 100 0.0 SW 13 15 7 8 1022.7 1022.7 0.0
01/04:00am 14.4 13.7 14.4 100 0.0 SW 11 13 6 7 1022.9 1022.9 0.0
01/03:30am 14.5 14.2 14.5 100 0.0 SW 9 13 5 7 1023.2 1023.2 0.0
01/03:00am 14.5 13.5 14.5 100 0.0 SW 13 15 7 8 1023.4 1023.4 0.0
01/02:30am 14.6 14.0 14.6 100 0.0 WSW 11 13 6 7 1023.7 1023.7 0.0
01/02:00am 14.8 14.3 14.8 100 0.0 W 11 13 6 7 1024.0 1024.0 0.0
01/01:30am 14.9 14.0 14.9 100 0.0 SW 13 15 7 8 1024.2 1024.2 0.0
01/01:00am 14.9 14.4 14.9 100 0.0 WSW 11 13 6 7 1024.4 1024.4 0.0
01/12:30am 15.2 15.2 15.2 100 0.0 WSW 9 13 5 7 1024.6 1024.6 0.0
01/12:00am 15.1 15.1 15.1 100 0.0 WSW 9 13 5 7 1024.8 1024.8 0.0
 
Date/Time
EST
Temp
°C
App
Temp
°C
Dew
Point
Rel
Hum
%
Delta-T
°C
Wind Press
QNH
hPa
Press
MSL
hPa
Rain
since 9 am
mm
Dir
 
Spd
km/h
Gust
km/h
Spd
kts
Gust
kts
30/11:30pm 15.0 14.5 15.0 100 0.0 SW 11 15 6 8 1024.9 1024.9 0.0
30/11:00pm 15.1 14.7 15.1 100 0.0 SSW 11 13 6 7 1024.8 1024.8 0.0
30/10:30pm 15.3 14.9 15.3 100 0.0 SW 11 13 6 7 1025.1 1025.1 0.0
30/10:00pm 15.8 15.9 15.6 99 0.1 SW 9 11 5 6 1025.4 1025.4 0.0
30/09:30pm 16.5 16.9 16.3 99 0.1 SW 9 11 5 6 1025.4 1025.4 0.0
30/09:00pm 16.6 17.0 16.4 99 0.1 SW 9 13 5 7 1025.4 1025.4 0.0
30/08:30pm 16.6 17.0 16.4 99 0.1 SW 9 13 5 7 1025.3 1025.3 0.0
30/08:00pm 16.6 17.0 16.4 99 0.1 SSW 9 11 5 6 1025.2 1025.2 0.0
30/07:30pm 16.9 17.7 16.4 97 0.3 SSW 7 9 4 5 1025.0 1025.0 0.0
30/07:00pm 17.5 17.7 15.8 90 1.0 SSW 9 13 5 7 1024.8 1024.8 0.0
30/06:30pm 18.7 18.3 16.1 85 1.5 SE 13 17 7 9 1024.6 1024.6 0.0
30/06:00pm 18.5 18.5 16.3 87 1.3 SE 11 17 6 9 1024.2 1024.2 0.0
30/05:30pm 18.4 18.0 16.2 87 1.3 SE 13 15 7 8 1024.3 1024.3 0.0
30/05:00pm 18.8 18.5 15.5 81 1.9 ESE 11 13 6 7 1024.0 1024.0 0.0
30/04:30pm 19.4 19.4 15.1 76 2.5 ESE 9 13 5 7 1024.1 1024.1 0.0
30/04:00pm 19.9 19.9 15.1 74 2.8 E 9 11 5 6 1024.1 1024.1 0.0
30/03:30pm 20.9 21.2 16.1 74 2.9 E 9 13 5 7 1023.9 1023.9 0.0
30/03:00pm 21.2 21.6 16.4 74 2.9 E 9 13 5 7 1024.1 1024.1 0.0
30/02:30pm 21.3 21.3 16.3 73 3.0 ESE 11 13 6 7 1024.0 1024.0 0.0
30/02:00pm 21.6 22.3 16.1 71 3.3 SE 7 9 4 5 1024.3 1024.3 0.0
30/01:30pm 21.8 22.2 17.2 75 2.8 SE 11 15 6 8 1024.4 1024.4 0.0
30/01:00pm 21.9 21.9 16.2 70 3.4 SE 11 13 6 7 1025.1 1025.1 0.0
30/12:30pm 21.2 21.4 17.6 80 2.2 SE 13 17 7 9 1025.2 1025.2 0.0
30/12:00pm 21.2 22.1 18.4 84 1.7 SE 11 15 6 8 1025.8 1025.8 0.0
30/11:30am 21.5 22.1 18.5 83 1.9 SE 13 15 7 8 1026.3 1026.3 0.0
30/11:00am 19.8 20.4 18.6 93 0.7 SSE 13 15 7 8 1026.7 1026.7 0.0
30/10:30am 19.7 20.3 18.7 94 0.6 S 13 17 7 9 1027.3 1027.3 0.0
30/10:00am 19.6 20.4 19.1 97 0.3 S 13 17 7 9 1027.6 1027.6 0.0
30/09:30am 19.4 21.4 19.2 99 0.1 SSW 7 11 4 6 1027.5 1027.5 0.0
30/09:00am 17.7 18.6 17.5 99 0.1 WSW 9 11 5 6 1027.8 1027.8 11.6
30/08:30am 16.8 17.4 16.8 100 0.0 SW 9 13 5 7 1027.6 1027.6 11.6
30/08:00am 15.7 16.3 15.7 100 0.0 SSW 7 9 4 5 1027.3 1027.3 11.6
30/07:30am 14.9 14.0 14.9 100 0.0 SW 13 15 7 8 1027.1 1027.1 11.6
30/07:00am 14.4 13.3 14.4 100 0.0 SW 13 15 7 8 1027.2 1027.2 11.6
30/06:30am 14.2 13.5 14.2 100 0.0 SW 11 15 6 8 1027.1 1027.1 11.6
30/06:00am 14.3 14.0 14.3 100 0.0 SW 9 13 5 7 1027.0 1027.0 11.6
30/05:30am 14.1 14.1 14.1 100 0.0 SW 7 9 4 5 1026.9 1026.9 11.6
30/05:00am 14.4 14.1 14.4 100 0.0 SW 9 11 5 6 1026.9 1026.9 11.6
30/04:30am 14.5 13.9 14.5 100 0.0 SW 11 15 6 8 1026.9 1026.9 11.4
30/04:00am 14.8 14.3 14.8 100 0.0 SW 11 15 6 8 1026.9 1026.9 11.4
30/03:30am 14.9 14.4 14.9 100 0.0 SW 11 15 6 8 1027.1 1027.1 11.4
30/03:00am 14.9 14.4 14.9 100 0.0 SW 11 15 6 8 1027.3 1027.3 11.4
30/02:30am 15.0 14.2 15.0 100 0.0 SW 13 15 7 8 1027.3 1027.3 11.4
30/02:00am 15.2 14.8 15.2 100 0.0 SW 11 15 6 8 1027.4 1027.4 11.4
30/01:30am 15.5 15.6 15.5 100 0.0 SW 9 11 5 6 1027.5 1027.5 11.4
30/01:00am 15.7 15.9 15.7 100 0.0 SW 9 13 5 7 1027.9 1027.9 11.4
30/12:30am 15.4 14.7 15.4 100 0.0 SSW 13 19 7 10 1027.9 1027.9 11.4
30/12:00am 15.4 15.1 15.4 100 0.0 SSW 11 15 6 8 1028.1 1028.1 11.4
 
Date/Time
EST
Temp
°C
App
Temp
°C
Dew
Point
Rel
Hum
%
Delta-T
°C
Wind Press
QNH
hPa
Press
MSL
hPa
Rain
since 9 am
mm
Dir
 
Spd
km/h
Gust
km/h
Spd
kts
Gust
kts
29/11:30pm 15.5 15.2 15.5 100 0.0 SW 11 15 6 8 1028.3 1028.3 11.4
29/11:00pm 15.7 15.9 15.7 100 0.0 SW 9 13 5 7 1028.7 1028.7 11.4
29/10:30pm 15.8 16.0 15.8 100 0.0 SW 9 13 5 7 1029.1 1029.1 11.4
29/10:00pm 15.7 15.5 15.7 100 0.0 SSW 11 15 6 8 1029.4 1029.4 11.4
29/09:30pm 15.7 15.5 15.7 100 0.0 SW 11 15 6 8 1029.5 1029.5 11.2
29/09:00pm 15.7 15.5 15.7 100 0.0 WSW 11 13 6 7 1029.5 1029.5 11.2
29/08:30pm 15.9 16.2 15.9 100 0.0 SSW 9 11 5 6 1029.8 1029.8 11.2
29/08:00pm 16.1 15.7 16.1 100 0.0 S 13 17 7 9 1029.6 1029.6 10.2
29/07:30pm 16.5 17.0 16.5 100 0.0 SW 9 15 5 8 1029.2 1029.2 9.4
29/07:00pm 16.6 15.2 16.6 100 0.0 SSE 19 28 10 15 1029.1 1029.1 9.4
29/06:30pm 16.5 15.5 16.5 100 0.0 ESE 17 26 9 14 1028.9 1028.9 7.4
29/06:12pm 17.0 15.2 17.0 100 0.0 S 22 35 12 19 1028.6 1028.6 7.0
29/06:00pm 16.2 16.2 16.2 100 0.0 S 11 17 6 9 1028.5 1028.5 6.2
29/05:30pm 17.0 13.7 17.0 100 0.0 SSE 30 35 16 19 1028.1 1028.1 3.4
29/05:00pm 17.3 14.5 17.3 100 0.0 SE 28 32 15 17 1027.9 1027.9 3.2
29/04:30pm 17.2 16.7 17.0 99 0.1 S 15 20 8 11 1027.9 1027.9 3.2
29/04:00pm 17.5 17.9 17.3 99 0.1 SSW 11 17 6 9 1027.9 1027.9 3.2
29/03:30pm 17.6 18.1 17.4 99 0.1 SW 11 15 6 8 1028.1 1028.1 3.2
29/03:00pm 17.8 18.7 17.6 99 0.1 SW 9 13 5 7 1028.5 1028.5 3.2
29/02:30pm 17.8 19.8 17.8 100 0.0 S 4 9 2 5 1028.6 1028.6 3.2
29/02:00pm 17.2 16.1 17.2 100 0.0 SE 19 28 10 15 1028.9 1028.9 3.2
29/01:30pm 19.2 18.7 18.7 97 0.3 SSE 19 35 10 19 1028.9 1028.9 2.0
29/01:00pm 18.8 17.9 18.3 97 0.3 S 20 26 11 14 1028.9 1028.9 2.0
29/12:30pm 18.5 17.3 18.5 100 0.0 S 22 30 12 16 1029.0 1029.0 2.0
29/12:00pm 17.8 15.2 17.8 100 0.0 S 28 35 15 19 1029.7 1029.7 2.0
29/11:30am 17.7 16.8 17.7 100 0.0 S 19 28 10 15 1030.5 1030.5 2.0
29/11:00am 17.1 16.7 17.1 100 0.0 SSW 15 19 8 10 1030.9 1030.9 2.0
29/10:30am 17.1 15.0 17.1 100 0.0 S 24 32 13 17 1031.0 1031.0 2.0
29/10:00am 16.6 14.3 16.6 100 0.0 S 24 32 13 17 1031.2 1031.2 1.6
29/09:30am 16.2 14.5 16.2 100 0.0 S 20 28 11 15 1031.7 1031.7 0.4
29/09:00am 16.6 14.3 16.6 100 0.0 S 24 35 13 19 1031.3 1031.3 17.6
29/08:30am 16.2 15.0 16.2 100 0.0 S 17 26 9 14 1031.1 1031.1 17.4
29/08:00am 16.1 15.3 16.1 100 0.0 S 15 20 8 11 1030.9 1030.9 17.2
29/07:30am 16.2 16.6 16.2 100 0.0 SSW 9 11 5 6 1030.8 1030.8 17.2
29/07:00am 16.0 16.3 16.0 100 0.0 SW 9 11 5 6 1030.3 1030.3 17.2
29/06:30am 16.0 16.3 16.0 100 0.0 SSW 9 13 5 7 1030.1 1030.1 16.6
29/06:00am 15.9 15.4 15.9 100 0.0 S 13 19 7 10 1029.9 1029.9 16.4
29/05:30am 16.0 14.8 16.0 100 0.0 S 17 22 9 12 1029.6 1029.6 16.2
29/05:00am 16.0 15.9 16.0 100 0.0 SSW 11 17 6 9 1029.3 1029.3 14.6
29/04:30am 16.4 15.7 16.4 100 0.0 S 15 22 8 12 1029.1 1029.1 9.2
29/04:00am 17.0 15.6 17.0 100 0.0 SSE 20 30 11 16 1029.0 1029.0 7.0
29/03:30am 17.0 18.1 17.0 100 0.0 NW 7 9 4 5 1029.2 1029.2 6.2
29/03:00am 17.0 17.7 17.0 100 0.0 NW 9 11 5 6 1029.3 1029.3 5.8
29/02:30am 16.6 17.1 16.6 100 0.0 W 9 13 5 7 1029.5 1029.5 5.8
29/02:00am 16.4 17.2 16.4 100 0.0 WSW 7 9 4 5 1029.4 1029.4 5.8
29/01:30am 16.7 17.3 16.7 100 0.0 WSW 9 13 5 7 1029.4 1029.4 5.8
29/01:00am 16.9 17.5 16.9 100 0.0 W 9 11 5 6 1029.6 1029.6 5.8
29/12:30am 17.0 17.7 17.0 100 0.0 WSW 9 11 5 6 1029.9 1029.9 5.8
29/12:00am 17.1 17.1 17.1 100 0.0 WNW 13 15 7 8 1030.0 1030.0 5.8
 
Date/Time
EST
Temp
°C
App
Temp
°C
Dew
Point
Rel
Hum
%
Delta-T
°C
Wind Press
QNH
hPa
Press
MSL
hPa
Rain
since 9 am
mm
Dir
 
Spd
km/h
Gust
km/h
Spd
kts
Gust
kts
28/11:30pm 17.3 18.5 17.3 100 0.0 SW 7 13 4 7 1030.3 1030.3 5.8
28/11:00pm 17.6 18.2 17.6 100 0.0 WNW 11 11 6 6 1030.5 1030.5 4.4
28/10:30pm 17.7 20.4 17.7 100 0.0 CALM 0 2 0 1 1030.5 1030.5 2.0
28/10:00pm 18.0 19.0 17.8 99 0.1 NW 9 13 5 7 1030.6 1030.6 0.0
28/09:30pm 18.0 18.3 17.8 99 0.1 SSE 13 17 7 9 1030.4 1030.4 0.0
28/09:00pm 18.3 18.7 18.1 99 0.1 S 13 19 7 10 1030.4 1030.4 0.0
28/08:30pm 18.9 18.8 18.7 99 0.1 SSE 17 20 9 11 1030.4 1030.4 0.0
28/08:00pm 18.0 18.3 17.0 94 0.6 S 11 15 6 8 1030.3 1030.3 0.0
28/07:30pm 19.0 17.3 18.2 95 0.5 SSE 24 30 13 16 1030.2 1030.2 0.0
28/07:00pm 19.4 17.5 18.6 95 0.5 SSE 26 33 14 18 1030.0 1030.0 0.0
28/06:30pm 19.6 18.1 19.4 99 0.1 SE 26 32 14 17 1029.5 1029.5 0.0
28/06:00pm 19.1 17.4 18.9 99 0.1 SSE 26 32 14 17 1029.1 1029.1 0.0
28/05:30pm 19.5 16.8 19.3 99 0.1 SE 32 37 17 20 1028.8 1028.8 0.0
28/05:00pm 19.5 16.8 19.3 99 0.1 SE 32 37 17 20 1028.6 1028.6 0.0
28/04:30pm 20.2 17.9 19.4 95 0.5 SSE 30 37 16 20 1028.5 1028.5 0.0
28/04:00pm 20.8 19.5 20.6 99 0.1 SE 28 33 15 18 1028.3 1028.3 0.0
28/03:30pm 21.2 19.2 19.1 88 1.3 SE 28 32 15 17 1028.2 1028.2 0.0
28/03:00pm 22.2 21.8 19.4 84 1.8 SSE 20 28 11 15 1027.9 1027.9 0.0
28/02:30pm 22.5 22.5 21.7 95 0.5 SSE 24 28 13 15 1027.9 1027.9 0.0
28/02:00pm 22.8 22.8 20.9 89 1.2 SSE 22 26 12 14 1028.0 1028.0 0.0
28/01:30pm 23.0 23.7 21.6 92 0.9 SSE 20 28 11 15 1028.2 1028.2 0.0
28/01:00pm 23.1 24.5 22.8 98 0.2 SSE 20 26 11 14 1028.3 1028.3 0.0
28/12:30pm 23.1 22.9 21.2 89 1.2 SSE 24 30 13 16 1028.6 1028.6 0.0
28/12:00pm 22.7 21.7 21.2 91 1.0 SSE 28 32 15 17 1029.1 1029.1 0.0
28/11:30am 22.4 20.5 20.9 91 1.0 SSE 32 35 17 19 1029.5 1029.5 0.0
28/11:00am 22.5 21.0 20.2 87 1.5 SSE 28 32 15 17 1029.8 1029.8 0.0
28/10:30am 22.3 22.6 21.6 96 0.5 SSE 22 28 12 15 1030.4 1030.4 0.0
28/10:00am 21.8 22.7 21.6 99 0.1 SSE 19 26 10 14 1030.6 1030.6 0.0
28/09:30am 21.0 21.4 19.8 93 0.8 SSE 17 20 9 11 1030.7 1030.7 0.0
28/09:00am 19.5 20.1 18.7 95 0.5 S 13 19 7 10 1030.7 1030.7 -
28/08:30am 18.4 18.8 18.2 99 0.1 SSW 13 17 7 9 1030.4 1030.4 -
28/08:00am 17.8 18.0 17.6 99 0.1 SSW 13 17 7 9 1030.3 1030.3 -
28/07:30am 16.3 16.3 16.3 100 0.0 SSW 11 13 6 7 1029.9 1029.9 -
28/07:00am 16.1 15.7 16.1 100 0.0 S 13 17 7 9 1029.7 1029.7 -
28/06:30am 16.3 15.6 16.3 100 0.0 S 15 19 8 10 1029.5 1029.5 -
28/06:00am 16.6 16.0 16.6 100 0.0 S 15 22 8 12 1029.4 1029.4 -

Other Formats:

Comma delimited format used in spreadsheet applications
http://www.bom.gov.au/fwo/IDQ60801/IDQ60801.94580.axf

JavaScript Object Notation format (JSON) in row-major order
http://www.bom.gov.au/fwo/IDQ60801/IDQ60801.94580.json